createdAt,value
2018-05-27T00:00:48.694Z,18.00
2018-05-27T00:03:17.310Z,17.90
2018-05-27T00:05:45.704Z,17.90
2018-05-27T00:08:13.292Z,17.90
2018-05-27T00:10:40.920Z,17.90
2018-05-27T00:13:09.272Z,17.90
2018-05-27T00:15:36.896Z,17.90
2018-05-27T00:18:04.496Z,17.90
2018-05-27T00:20:32.125Z,17.90
2018-05-27T00:22:59.709Z,17.90
2018-05-27T00:25:27.297Z,17.90
2018-05-27T00:27:55.693Z,17.90
2018-05-27T00:30:23.275Z,17.80
2018-05-27T00:32:50.896Z,17.80
2018-05-27T00:35:19.246Z,17.70
2018-05-27T00:37:46.874Z,17.70
2018-05-27T00:40:14.468Z,17.60
2018-05-27T00:42:42.095Z,17.60
2018-05-27T00:45:09.682Z,17.60
2018-05-27T00:47:37.304Z,17.50
2018-05-27T00:50:04.887Z,17.50
2018-05-27T00:52:32.516Z,17.50
2018-05-27T00:55:00.148Z,17.50
2018-05-27T00:57:28.600Z,17.40
2018-05-27T00:59:56.224Z,17.30
2018-05-27T01:02:23.844Z,17.30
2018-05-27T01:04:51.432Z,17.40
2018-05-27T01:07:19.064Z,17.10
2018-05-27T01:09:46.672Z,16.80
2018-05-27T01:12:14.265Z,16.80
2018-05-27T01:14:41.897Z,16.80
2018-05-27T01:17:09.480Z,16.90
2018-05-27T01:19:37.105Z,16.90
2018-05-27T01:22:04.713Z,17.00
2018-05-27T01:24:33.100Z,17.00
2018-05-27T01:27:00.704Z,16.90
2018-05-27T01:29:28.322Z,17.00
2018-05-27T01:31:56.633Z,17.00
2018-05-27T01:34:24.224Z,17.00
2018-05-27T01:36:51.815Z,17.00
2018-05-27T01:39:20.953Z,17.40
2018-05-27T01:41:48.534Z,17.40
2018-05-27T01:44:16.161Z,17.50
2018-05-27T01:46:44.513Z,17.40
2018-05-27T01:49:12.144Z,17.40
2018-05-27T01:51:39.764Z,17.40
2018-05-27T01:54:08.155Z,17.20
2018-05-27T01:56:35.740Z,17.20
2018-05-27T01:59:03.401Z,17.20
2018-05-27T02:01:31.024Z,17.10
2018-05-27T02:03:59.377Z,17.10
2018-05-27T02:06:27.000Z,17.10
2018-05-27T02:08:54.592Z,17.20
2018-05-27T02:11:22.220Z,17.20
2018-05-27T02:13:49.808Z,17.10
2018-05-27T02:16:18.200Z,17.00
2018-05-27T02:18:45.825Z,17.10
2018-05-27T02:21:13.413Z,17.00
2018-05-27T02:23:41.043Z,17.00
2018-05-27T02:26:08.632Z,17.00
2018-05-27T02:28:36.441Z,17.00
2018-05-27T02:31:04.027Z,16.90
2018-05-27T02:33:31.648Z,16.90
2018-05-27T02:36:00.002Z,16.80
2018-05-27T02:38:27.732Z,16.80
2018-05-27T02:40:55.356Z,16.80
2018-05-27T02:43:23.709Z,16.80
2018-05-27T02:45:51.332Z,16.80
2018-05-27T02:48:18.967Z,16.80
2018-05-27T02:50:46.594Z,16.80
2018-05-27T02:53:14.233Z,16.80
2018-05-27T02:55:41.817Z,16.80
2018-05-27T02:58:10.217Z,16.70
2018-05-27T03:00:37.812Z,16.70
2018-05-27T03:03:05.445Z,16.70
2018-05-27T03:05:33.056Z,16.70
2018-05-27T03:08:00.683Z,16.70
2018-05-27T03:10:28.394Z,16.70
2018-05-27T03:12:56.808Z,16.70
2018-05-27T03:15:24.393Z,16.70
2018-05-27T03:17:52.020Z,16.70
2018-05-27T03:20:20.416Z,16.60
2018-05-27T03:22:48.048Z,16.60
2018-05-27T03:25:16.402Z,16.50
2018-05-27T03:27:45.535Z,16.50
2018-05-27T03:30:13.893Z,16.50
2018-05-27T03:32:41.529Z,16.50
2018-05-27T03:35:09.152Z,16.40
2018-05-27T03:37:36.781Z,16.50
2018-05-27T03:40:05.137Z,16.50
2018-05-27T03:42:34.281Z,16.40
2018-05-27T03:45:01.909Z,16.50
2018-05-27T03:47:29.533Z,16.40
2018-05-27T03:49:57.166Z,16.40
2018-05-27T03:52:24.749Z,16.40
2018-05-27T03:54:52.376Z,16.40
2018-05-27T03:57:20.732Z,16.50
2018-05-27T03:59:48.371Z,16.50
2018-05-27T04:02:15.964Z,16.50
2018-05-27T04:04:57.173Z,16.50
2018-05-27T04:07:36.593Z,16.50
2018-05-27T04:10:04.940Z,16.50
2018-05-27T04:12:33.332Z,16.60
2018-05-27T04:15:01.685Z,16.50
2018-05-27T04:17:29.313Z,16.50
2018-05-27T04:19:56.896Z,16.50
2018-05-27T04:22:24.518Z,16.50
2018-05-27T04:24:52.145Z,16.50
2018-05-27T04:27:19.773Z,16.50
2018-05-27T04:29:47.396Z,16.60
2018-05-27T04:32:14.992Z,16.70
2018-05-27T04:34:42.624Z,16.80
2018-05-27T04:37:10.241Z,16.90
2018-05-27T04:39:37.869Z,17.00
2018-05-27T04:42:05.526Z,17.00
2018-05-27T04:44:33.155Z,16.90
2018-05-27T04:47:01.508Z,16.90
2018-05-27T04:49:29.136Z,16.90
2018-05-27T04:51:56.724Z,16.90
2018-05-27T04:54:24.352Z,16.90
2018-05-27T04:56:52.613Z,16.90
2018-05-27T04:59:20.241Z,17.00
2018-05-27T05:01:48.589Z,17.00
2018-05-27T05:04:16.173Z,17.00
2018-05-27T05:06:44.572Z,17.10
2018-05-27T05:09:12.160Z,17.10
2018-05-27T05:11:39.788Z,17.10
2018-05-27T05:14:08.176Z,17.20
2018-05-27T05:16:35.807Z,17.10
2018-05-27T05:19:04.201Z,17.20
2018-05-27T05:21:32.597Z,17.30
2018-05-27T05:24:00.225Z,17.30
2018-05-27T05:26:28.409Z,17.40
2018-05-27T05:28:56.806Z,17.50
2018-05-27T05:31:24.393Z,17.50
2018-05-27T05:33:52.777Z,17.60
2018-05-27T05:36:20.469Z,17.70
2018-05-27T05:38:48.789Z,18.30
2018-05-27T05:41:16.416Z,18.30
2018-05-27T05:43:44.017Z,18.50
2018-05-27T05:46:11.660Z,18.60
2018-05-27T05:48:40.012Z,18.80
2018-05-27T05:51:07.644Z,18.80
2018-05-27T05:53:35.228Z,19.00
2018-05-27T05:56:02.860Z,19.00
2018-05-27T05:58:30.440Z,18.90
2018-05-27T06:00:58.063Z,18.70
2018-05-27T06:03:25.652Z,18.50
2018-05-27T06:05:53.276Z,18.40
2018-05-27T06:08:20.968Z,18.40
2018-05-27T06:10:48.603Z,18.30
2018-05-27T06:13:16.292Z,18.30
2018-05-27T06:15:43.920Z,18.30
2018-05-27T06:18:11.576Z,18.40
2018-05-27T06:20:39.928Z,18.50
2018-05-27T06:23:07.589Z,18.40
2018-05-27T06:25:36.753Z,18.60
2018-05-27T06:28:04.380Z,18.60
2018-05-27T06:30:31.968Z,18.70
2018-05-27T06:32:59.620Z,18.70
2018-05-27T06:35:27.358Z,18.80
2018-05-27T06:37:55.746Z,18.90
2018-05-27T06:40:23.381Z,18.90
2018-05-27T06:42:51.732Z,19.00
2018-05-27T06:45:19.360Z,19.00
2018-05-27T06:47:46.954Z,19.10
2018-05-27T06:50:14.577Z,19.20
2018-05-27T06:52:42.203Z,19.30
2018-05-27T06:55:10.589Z,19.60
2018-05-27T06:57:38.936Z,19.70
2018-05-27T07:00:06.573Z,19.70
2018-05-27T07:02:34.157Z,19.80
2018-05-27T07:05:01.750Z,19.90
2018-05-27T07:07:30.149Z,20.10
2018-05-27T07:09:57.776Z,20.10
2018-05-27T07:12:25.357Z,20.20
2018-05-27T07:14:53.752Z,20.40
2018-05-27T07:17:21.380Z,20.40
2018-05-27T07:19:49.733Z,20.50
2018-05-27T07:22:17.366Z,20.50
2018-05-27T07:24:44.984Z,20.60
2018-05-27T07:27:13.375Z,20.80
2018-05-27T07:29:41.773Z,20.90
2018-05-27T07:32:09.404Z,20.90
2018-05-27T07:34:37.836Z,21.10
2018-05-27T07:37:05.458Z,21.00
2018-05-27T07:39:33.853Z,21.30
2018-05-27T07:42:01.505Z,21.30
2018-05-27T07:44:29.096Z,21.40
2018-05-27T07:46:56.729Z,21.50
2018-05-27T07:49:24.345Z,21.50
2018-05-27T07:51:51.965Z,21.60
2018-05-27T07:54:19.603Z,21.70
2018-05-27T07:56:47.229Z,21.80
2018-05-27T07:59:14.812Z,21.90
2018-05-27T08:01:43.208Z,22.10
2018-05-27T08:04:10.791Z,22.10
2018-05-27T08:06:38.421Z,22.10
2018-05-27T08:09:06.821Z,22.40
2018-05-27T08:11:34.454Z,22.40
2018-05-27T08:14:02.816Z,22.50
2018-05-27T08:16:30.435Z,22.50
2018-05-27T08:18:58.073Z,22.70
2018-05-27T08:21:25.709Z,22.70
2018-05-27T08:23:54.072Z,22.70
2018-05-27T08:26:21.700Z,22.70
2018-05-27T08:28:49.366Z,22.80
2018-05-27T08:31:16.953Z,22.90
2018-05-27T08:33:45.374Z,22.90
2018-05-27T08:36:12.961Z,23.00
2018-05-27T08:38:40.592Z,23.10
2018-05-27T08:41:08.181Z,23.20
2018-05-27T08:43:35.773Z,23.40
2018-05-27T08:46:03.408Z,23.40
2018-05-27T08:48:31.041Z,23.50
2018-05-27T08:50:58.673Z,23.50
2018-05-27T08:53:27.097Z,23.80
2018-05-27T08:55:54.709Z,23.70
2018-05-27T08:58:22.336Z,23.90
2018-05-27T09:00:49.924Z,23.90
2018-05-27T09:03:18.333Z,24.00
2018-05-27T09:05:45.937Z,24.00
2018-05-27T09:08:13.673Z,24.20
2018-05-27T09:10:41.404Z,24.30
2018-05-27T09:13:09.756Z,24.40
2018-05-27T09:15:37.356Z,24.30
2018-05-27T09:18:05.752Z,24.50
2018-05-27T09:20:33.364Z,24.50
2018-05-27T09:23:01.017Z,24.50
2018-05-27T09:25:28.707Z,24.60
2018-05-27T09:27:57.078Z,24.80
2018-05-27T09:30:25.476Z,24.90
2018-05-27T09:32:53.868Z,25.00
2018-05-27T09:35:21.457Z,25.00
2018-05-27T09:37:49.098Z,25.10
2018-05-27T09:40:16.725Z,25.10
2018-05-27T09:42:45.096Z,25.50
2018-05-27T09:45:13.544Z,25.50
2018-05-27T09:47:41.174Z,25.50
2018-05-27T09:50:08.768Z,25.40
2018-05-27T09:52:36.404Z,25.60
2018-05-27T09:55:04.060Z,25.70
2018-05-27T09:57:31.676Z,25.80
2018-05-27T09:59:59.290Z,25.80
2018-05-27T10:02:26.929Z,26.10
2018-05-27T10:04:54.521Z,26.30
2018-05-27T10:07:22.148Z,26.30
2018-05-27T10:09:49.783Z,26.40
2018-05-27T10:12:18.146Z,26.60
2018-05-27T10:14:45.781Z,26.50
2018-05-27T10:17:13.372Z,26.60
2018-05-27T10:19:41.000Z,26.60
2018-05-27T10:22:08.635Z,26.80
2018-05-27T10:24:36.260Z,26.90
2018-05-27T10:27:03.887Z,26.90
2018-05-27T10:29:31.525Z,27.00
2018-05-27T10:31:59.117Z,27.20
2018-05-27T10:34:26.874Z,27.30
2018-05-27T10:36:54.461Z,27.50
2018-05-27T10:39:22.193Z,27.60
2018-05-27T10:41:49.824Z,27.60
2018-05-27T10:44:17.454Z,27.70
2018-05-27T10:46:45.080Z,27.70
2018-05-27T10:49:12.664Z,27.70
2018-05-27T10:51:40.298Z,27.80
2018-05-27T10:54:07.922Z,27.90
2018-05-27T10:56:35.558Z,27.90
2018-05-27T10:59:03.148Z,27.90
2018-05-27T11:01:30.805Z,28.00
2018-05-27T11:03:59.205Z,28.00
2018-05-27T11:06:26.790Z,28.00
2018-05-27T11:08:54.443Z,27.90
2018-05-27T11:11:22.116Z,27.70
2018-05-27T11:13:49.750Z,27.90
2018-05-27T11:16:17.412Z,28.10
2018-05-27T11:18:45.041Z,28.30
2018-05-27T11:21:13.556Z,27.90
2018-05-27T11:23:41.164Z,27.90
2018-05-27T11:26:08.792Z,28.10
2018-05-27T11:28:36.412Z,28.40
2018-05-27T11:31:04.769Z,28.80
2018-05-27T11:33:32.400Z,28.70
2018-05-27T11:36:00.037Z,28.60
2018-05-27T11:38:27.669Z,28.40
2018-05-27T11:40:56.020Z,28.00
2018-05-27T11:43:24.433Z,27.90
2018-05-27T11:45:52.785Z,27.80
2018-05-27T11:48:20.410Z,27.80
2018-05-27T11:50:48.005Z,27.90
2018-05-27T11:53:17.136Z,28.10
2018-05-27T11:55:44.816Z,28.10
2018-05-27T11:58:12.493Z,28.10
2018-05-27T12:00:40.120Z,28.00
2018-05-27T12:03:07.729Z,27.80
2018-05-27T12:05:35.361Z,27.60
2018-05-27T12:08:02.983Z,27.50
2018-05-27T12:10:31.393Z,27.30
2018-05-27T12:12:59.740Z,27.30
2018-05-27T12:15:28.129Z,27.00
2018-05-27T12:17:56.496Z,26.90
2018-05-27T12:20:24.885Z,26.60
2018-05-27T12:22:53.240Z,26.30
2018-05-27T12:25:20.884Z,26.30
2018-05-27T12:27:48.469Z,26.40
2018-05-27T12:30:16.101Z,26.40
2018-05-27T12:32:43.688Z,26.30
2018-05-27T12:35:11.323Z,26.10
2018-05-27T12:37:38.956Z,25.90
2018-05-27T12:40:06.596Z,25.80
2018-05-27T12:42:34.193Z,25.60
2018-05-27T12:45:01.820Z,25.40
2018-05-27T12:47:29.423Z,25.30
2018-05-27T12:49:57.056Z,25.30
2018-05-27T12:52:24.644Z,25.30
2018-05-27T12:54:52.268Z,25.20
2018-05-27T12:57:19.917Z,25.20
2018-05-27T12:59:48.276Z,25.00
2018-05-27T13:02:15.869Z,25.10
2018-05-27T13:04:43.498Z,25.00
2018-05-27T13:07:11.088Z,24.80
2018-05-27T13:09:39.771Z,24.70
2018-05-27T13:12:07.785Z,24.50
2018-05-27T13:14:36.132Z,24.00
2018-05-27T13:17:03.731Z,24.00
2018-05-27T13:19:31.384Z,23.90
2018-05-27T13:21:58.992Z,23.80
2018-05-27T13:24:27.392Z,23.30
2018-05-27T13:26:55.036Z,23.30
2018-05-27T13:29:23.452Z,23.30
2018-05-27T13:31:51.032Z,23.30
2018-05-27T13:34:18.674Z,23.20
2018-05-27T13:36:46.308Z,23.20
2018-05-27T13:39:13.940Z,23.00
2018-05-27T13:41:41.520Z,23.00
2018-05-27T13:44:09.164Z,22.90
2018-05-27T13:46:37.570Z,22.80
2018-05-27T13:49:05.197Z,22.70
2018-05-27T13:51:32.783Z,22.70
2018-05-27T13:54:01.181Z,22.70
2018-05-27T13:56:28.777Z,22.70
2018-05-27T13:58:56.409Z,22.70
2018-05-27T14:01:24.036Z,22.70
2018-05-27T14:03:52.431Z,22.70
2018-05-27T14:06:20.057Z,22.60
2018-05-27T14:08:47.645Z,22.70
2018-05-27T14:11:15.293Z,22.60
2018-05-27T14:13:43.665Z,22.40
2018-05-27T14:16:11.249Z,22.40
2018-05-27T14:18:38.885Z,22.20
2018-05-27T14:21:06.545Z,22.10
2018-05-27T14:23:34.939Z,21.90
2018-05-27T14:26:02.588Z,21.70
2018-05-27T14:28:30.172Z,21.40
2018-05-27T14:30:57.933Z,21.10
2018-05-27T14:33:25.522Z,20.70
2018-05-27T14:35:53.155Z,20.40
2018-05-27T14:38:20.742Z,19.90
2018-05-27T14:40:48.376Z,19.70
2018-05-27T14:43:16.725Z,19.30
2018-05-27T14:45:44.358Z,19.30
2018-05-27T14:48:11.946Z,19.20
2018-05-27T14:50:39.573Z,19.20
2018-05-27T14:53:07.204Z,19.00
2018-05-27T14:55:34.829Z,18.90
2018-05-27T14:58:02.552Z,18.90
2018-05-27T15:00:30.175Z,18.90
2018-05-27T15:02:58.571Z,18.90
2018-05-27T15:05:26.157Z,18.90
2018-05-27T15:07:53.779Z,18.80
2018-05-27T15:10:21.441Z,18.70
2018-05-27T15:12:49.100Z,18.60
2018-05-27T15:15:17.508Z,18.50
2018-05-27T15:17:45.121Z,18.50
2018-05-27T15:20:13.532Z,18.30
2018-05-27T15:22:41.173Z,18.30
2018-05-27T15:25:09.567Z,18.10
2018-05-27T15:27:37.997Z,18.20
2018-05-27T15:30:05.635Z,18.10
2018-05-27T15:32:33.221Z,18.20
2018-05-27T15:35:00.848Z,18.10
2018-05-27T15:37:28.480Z,17.90
2018-05-27T15:39:56.886Z,17.90
2018-05-27T15:42:24.479Z,17.90
2018-05-27T15:44:52.112Z,17.90
2018-05-27T15:47:20.216Z,17.80
2018-05-27T15:49:48.619Z,17.80
2018-05-27T15:52:16.981Z,17.80
2018-05-27T15:54:44.618Z,17.80
2018-05-27T15:57:12.208Z,17.90
2018-05-27T15:59:39.843Z,17.90
2018-05-27T16:02:07.469Z,17.90
2018-05-27T16:04:35.102Z,18.00
2018-05-27T16:07:02.754Z,18.10
2018-05-27T16:09:30.338Z,18.00
2018-05-27T16:11:58.689Z,18.00
2018-05-27T16:14:26.332Z,17.90
2018-05-27T16:16:53.958Z,17.90
2018-05-27T16:19:21.552Z,17.90
2018-05-27T16:21:49.188Z,17.90
2018-05-27T16:24:16.806Z,17.90
2018-05-27T16:26:44.405Z,17.90
2018-05-27T16:29:12.024Z,17.80
2018-05-27T16:31:39.645Z,17.80
2018-05-27T16:34:07.387Z,17.70
2018-05-27T16:36:35.357Z,17.80
2018-05-27T16:39:02.989Z,17.80
2018-05-27T16:41:31.392Z,17.80
2018-05-27T16:43:58.983Z,17.80
2018-05-27T16:46:26.608Z,17.80
2018-05-27T16:48:54.201Z,17.70
2018-05-27T16:51:22.604Z,17.80
2018-05-27T16:53:50.224Z,17.80
2018-05-27T16:56:17.888Z,17.80
2018-05-27T16:58:45.517Z,17.80
2018-05-27T17:01:13.920Z,17.70
2018-05-27T17:03:41.501Z,17.70
2018-05-27T17:06:09.119Z,17.70
2018-05-27T17:08:37.529Z,17.70
2018-05-27T17:11:05.187Z,17.70
2018-05-27T17:13:33.874Z,17.80
2018-05-27T17:16:01.525Z,17.80
2018-05-27T17:18:29.229Z,17.90
2018-05-27T17:20:57.706Z,17.90
2018-05-27T17:23:25.272Z,17.90
2018-05-27T17:25:52.931Z,17.90
2018-05-27T17:28:20.704Z,17.90
2018-05-27T17:30:48.300Z,17.90
2018-05-27T17:33:16.690Z,17.80
2018-05-27T17:35:44.327Z,17.80
2018-05-27T17:38:12.729Z,17.70
2018-05-27T17:40:40.380Z,17.70
2018-05-27T17:43:08.760Z,17.70
2018-05-27T17:45:39.481Z,17.80
2018-05-27T17:48:13.732Z,17.80
2018-05-27T17:50:41.329Z,17.80
2018-05-27T17:53:09.756Z,17.80
2018-05-27T17:55:37.342Z,17.80
2018-05-27T17:58:04.973Z,17.80
2018-05-27T18:00:32.605Z,17.80
2018-05-27T18:03:00.194Z,17.60
2018-05-27T18:05:28.696Z,17.60
2018-05-27T18:07:56.291Z,17.60
2018-05-27T18:10:23.917Z,17.60
2018-05-27T18:12:51.712Z,17.40
2018-05-27T18:15:19.462Z,17.30
2018-05-27T18:17:47.090Z,17.30
2018-05-27T18:20:15.409Z,17.30
2018-05-27T18:22:43.116Z,17.20
2018-05-27T18:25:11.475Z,17.20
2018-05-27T18:27:39.137Z,17.20
2018-05-27T18:30:07.516Z,17.10
2018-05-27T18:32:35.173Z,17.10
2018-05-27T18:35:02.792Z,17.00
2018-05-27T18:37:30.395Z,17.00
2018-05-27T18:39:58.147Z,17.00
2018-05-27T18:42:25.813Z,17.00
2018-05-27T18:44:53.606Z,17.10
2018-05-27T18:47:22.024Z,17.10
2018-05-27T18:49:49.710Z,17.10
2018-05-27T18:52:18.053Z,17.10
2018-05-27T18:54:45.815Z,17.10
2018-05-27T18:57:13.435Z,17.10
2018-05-27T18:59:41.815Z,17.10
2018-05-27T19:02:09.644Z,17.10
2018-05-27T19:04:37.250Z,17.10
2018-05-27T19:07:05.289Z,17.10
2018-05-27T19:09:32.982Z,17.10
2018-05-27T19:12:00.799Z,17.00
2018-05-27T19:14:28.421Z,17.00
2018-05-27T19:16:57.075Z,17.00
2018-05-27T19:19:25.478Z,16.90
2018-05-27T19:21:54.560Z,16.90
2018-05-27T19:24:22.977Z,17.00
2018-05-27T19:26:51.281Z,17.00
2018-05-27T19:29:18.913Z,17.00
2018-05-27T19:31:46.949Z,17.00
2018-05-27T19:34:14.576Z,17.10
2018-05-27T19:36:42.340Z,17.10
2018-05-27T19:39:09.952Z,17.20
2018-05-27T19:41:38.349Z,17.20
2018-05-27T19:44:06.212Z,17.20
2018-05-27T19:46:33.842Z,17.20
2018-05-27T19:49:01.437Z,17.10
2018-05-27T19:51:29.069Z,17.10
2018-05-27T19:53:56.672Z,17.10
2018-05-27T19:56:24.302Z,17.00
2018-05-27T19:58:52.656Z,17.00
2018-05-27T20:01:20.393Z,16.90
2018-05-27T20:03:48.013Z,17.00
2018-05-27T20:06:15.650Z,17.00
2018-05-27T20:08:43.240Z,17.00
2018-05-27T20:11:10.900Z,17.00
2018-05-27T20:13:38.528Z,17.00
2018-05-27T20:16:06.165Z,17.00
2018-05-27T20:18:33.797Z,17.00
2018-05-27T20:21:01.384Z,17.00
2018-05-27T20:23:29.021Z,17.00
2018-05-27T20:25:56.628Z,17.00
2018-05-27T20:28:24.260Z,17.00
2018-05-27T20:30:51.933Z,17.10
2018-05-27T20:33:19.536Z,17.00
2018-05-27T20:35:47.924Z,17.00
2018-05-27T20:38:16.295Z,17.00
2018-05-27T20:40:44.693Z,17.00
2018-05-27T20:43:12.277Z,17.00
2018-05-27T20:45:40.683Z,16.90
2018-05-27T20:48:08.369Z,16.80
2018-05-27T20:50:36.773Z,16.80
2018-05-27T20:53:04.357Z,16.70
2018-05-27T20:55:31.990Z,16.80
2018-05-27T20:57:59.620Z,16.70
2018-05-27T21:00:27.208Z,16.70
2018-05-27T21:02:54.808Z,16.70
2018-05-27T21:05:22.433Z,16.80
2018-05-27T21:07:50.056Z,16.80
2018-05-27T21:10:17.681Z,16.80
2018-05-27T21:12:45.270Z,16.80
2018-05-27T21:15:12.892Z,16.90
2018-05-27T21:17:40.499Z,16.90
2018-05-27T21:20:08.125Z,16.90
2018-05-27T21:22:35.740Z,16.80
2018-05-27T21:25:03.387Z,16.70
2018-05-27T21:27:31.744Z,16.60
2018-05-27T21:29:59.368Z,16.60
2018-05-27T21:32:26.993Z,16.70
2018-05-27T21:34:55.352Z,16.90
2018-05-27T21:37:22.992Z,16.90
2018-05-27T21:39:50.580Z,16.90
2018-05-27T21:42:18.311Z,16.90
2018-05-27T21:44:45.892Z,17.00
2018-05-27T21:47:13.518Z,17.00
2018-05-27T21:49:41.143Z,17.00
2018-05-27T21:52:09.536Z,17.10
2018-05-27T21:54:37.161Z,17.10
2018-05-27T21:57:04.748Z,17.20
2018-05-27T21:59:33.151Z,17.40
2018-05-27T22:02:00.756Z,17.40
2018-05-27T22:04:28.528Z,17.40
2018-05-27T22:06:56.117Z,17.30
2018-05-27T22:09:24.492Z,17.20
2018-05-27T22:11:52.888Z,17.10
2018-05-27T22:14:20.512Z,17.10
2018-05-27T22:16:48.101Z,17.10
2018-05-27T22:19:16.516Z,16.70
2018-05-27T22:21:44.177Z,16.70
2018-05-27T22:24:11.839Z,16.50
2018-05-27T22:26:39.424Z,16.50
2018-05-27T22:29:07.008Z,16.70
2018-05-27T22:31:35.400Z,16.80
2018-05-27T22:34:03.797Z,16.80
2018-05-27T22:36:31.376Z,16.80
2018-05-27T22:38:58.961Z,16.90
2018-05-27T22:41:26.594Z,16.90
2018-05-27T22:43:54.184Z,16.90
2018-05-27T22:46:21.826Z,16.80
2018-05-27T22:48:49.413Z,16.80
2018-05-27T22:51:17.045Z,16.90
2018-05-27T22:53:44.630Z,16.90
2018-05-27T22:56:12.257Z,16.80
2018-05-27T22:58:39.841Z,16.70
2018-05-27T23:01:07.500Z,16.70
2018-05-27T23:03:35.080Z,16.60
2018-05-27T23:06:03.480Z,16.70
2018-05-27T23:08:31.876Z,16.80
2018-05-27T23:10:59.501Z,16.70
2018-05-27T23:13:27.089Z,16.80
2018-05-27T23:15:54.721Z,16.70
2018-05-27T23:18:22.305Z,16.70
2018-05-27T23:20:50.690Z,16.60
2018-05-27T23:23:18.316Z,16.60
2018-05-27T23:25:47.014Z,16.60
2018-05-27T23:28:15.408Z,16.60
2018-05-27T23:30:43.756Z,16.40
2018-05-27T23:33:11.428Z,16.40
2018-05-27T23:35:39.040Z,16.30
2018-05-27T23:38:06.624Z,16.20
2018-05-27T23:40:34.249Z,16.30
2018-05-27T23:43:01.876Z,16.30
2018-05-27T23:45:30.226Z,16.20
2018-05-27T23:47:57.845Z,16.10
2018-05-27T23:50:25.444Z,16.10
2018-05-27T23:52:53.066Z,16.20
2018-05-27T23:55:20.692Z,16.30
2018-05-27T23:57:48.312Z,16.40
